Flight Track Log - Related Links

Times and Time Zones

All times are in EDT time to prevent confusion due to time zone crossing. See the ASQ4209 flight status page for this flight to view local times or setup timezone preferences in your user account.

Time Position Orientation Groundspeed Altitude Reporting Facility
EDT Latitude Longitude Course Direction KTS MPH feet Rate Location/Type
Tue 08:04:30 PM 29.9592 -95.3392 90° East 161 185 1,000  Level Houston Center
Tue 08:05:31 PM 29.9431 -95.2783 107° East 238 274 2,300 1,429 Climbing Houston Center
Tue 08:06:15 PM 29.9344 -95.2272 101° East 235 270 3,500 1,472 Climbing Houston Center
Tue 08:07:17 PM 29.9339 -95.1442 90° East 258 297 4,900 767 Climbing Houston Center
Tue 08:08:00 PM 29.9834 -94.9181 90° East  Level FlightAware Approximate
Tue 08:08:28 PM 29.9414 -95.0325 86° East 273 314 5,200  Level Houston Center
Tue 08:09:00 PM 29.9834 -94.8143 90° East  Level FlightAware Approximate
Tue 08:09:21 PM 29.9464 -94.9683 85° East 274 315 6,200  Level Houston Center
Tue 08:10:22 PM 29.9533 -94.8808 85° East 273 314 8,100 1,366 Climbing Houston Center
Tue 08:11:24 PM 29.9606 -94.7906 85° East 279 321 9,000 968 Climbing Houston Center
Tue 08:12:26 PM 29.9694 -94.6772 85° East 294 338 10,100 1,122 Climbing Houston Center
Tue 08:13:27 PM 29.9767 -94.5739 85° East 313 360 11,300 976 Climbing Houston Center
Tue 08:14:29 PM 29.9842 -94.4719 85° East 336 387 12,100 871 Climbing Houston Center
Tue 08:15:31 PM 29.9933 -94.3567 85° East 355 409 13,100 1,306 Climbing Houston Center
Tue 08:16:33 PM 30.0064 -94.2178 84° East 363 418 14,800 1,500 Climbing Houston Center
Tue 08:17:35 PM 30.0203 -94.1047 82° East 359 413 16,200 1,317 Climbing Houston Center
Tue 08:18:36 PM 30.0347 -93.9933 81° East 354 407 17,500 1,220 Climbing Houston Center
Tue 08:19:38 PM 30.0489 -93.8819 82° East 352 405 18,700 1,161 Climbing Houston Center
Tue 08:20:40 PM 30.0619 -93.7694 82° East 355 409 19,900 1,016 Climbing Houston Center
Tue 08:21:42 PM 30.0750 -93.6542 83° East 363 418 20,800 537 Climbing Houston Center
Tue 08:22:43 PM 30.0931 -93.5089 82° East 387 445 21,000 98 Climbing Houston Center
Tue 08:23:45 PM 30.1069 -93.3808 83° East 407 468 21,000  Level Houston Center
Tue 08:24:47 PM 30.1239 -93.2481 82° East 424 488 21,000 -48 Level Houston Center
Tue 08:25:49 PM 30.1392 -93.1150 82° East 423 487 20,900  Descending Houston Center
Tue 08:26:51 PM 30.1636 -92.9850 78° East 419 482 21,000 49 Climbing Houston Center
Tue 08:27:52 PM 30.1950 -92.8292 77° East 417 480 21,000  Level Houston Center
Tue 08:28:54 PM 30.2200 -92.6969 78° East 422 486 21,000  Level Houston Center
Tue 08:29:56 PM 30.2467 -92.5642 77° East 426 490 21,000 -387 Level Houston Center
Tue 08:30:58 PM 30.2725 -92.4314 77° East 426 490 20,200 -1,452 Descending Houston Center
Tue 08:32:00 PM 30.2975 -92.2989 78° East 409 471 18,000 -1,610 Descending Houston Center
Tue 08:33:01 PM 30.3206 -92.1753 78° East 397 457 16,900 -1,366 Descending Houston Center
Tue 08:34:03 PM 30.3436 -92.0542 78° East 389 448 15,200 -1,984 Descending Houston Center
Tue 08:35:05 PM 30.3725 -91.9064 77° East 394 453 12,800 -2,000 Descending Houston Center
Tue 08:36:06 PM 30.3939 -91.7883 78° East 383 441 11,100 -1,561 Descending Houston Center
Tue 08:37:08 PM 30.4306 -91.6839 68° East 368 423 9,600 -1,306 Descending Houston Center
Tue 08:38:10 PM 30.4956 -91.6117 44° Northeast 342 394 8,400 -1,463 Descending Houston Center
Tue 08:39:11 PM 30.5356 -91.5486 54° Northeast 308 354 6,600 -2,000 Descending Houston Center
Tue 08:40:13 PM 30.5308 -91.4747 94° East 256 295 4,300 -1,548 Descending Houston Center
Tue 08:41:15 PM 30.5325 -91.3833 89° East 249 287 3,400 -871 Descending Houston Center

Login

Don't have an account? Register now (free) for customized features, flight alerts, and more!